createdAt,value
2022-09-18T00:00:38.203Z,0.70
2022-09-18T00:01:38.374Z,0.90
2022-09-18T00:02:38.242Z,0.70
2022-09-18T00:03:38.162Z,0.90
2022-09-18T00:04:38.142Z,0.80
2022-09-18T00:05:38.133Z,0.70
2022-09-18T00:06:38.132Z,0.90
2022-09-18T00:07:38.263Z,0.80
2022-09-18T00:08:38.155Z,0.80
2022-09-18T00:09:38.082Z,0.80
2022-09-18T00:10:38.064Z,0.80
2022-09-18T00:11:38.049Z,0.80
2022-09-18T00:12:38.041Z,0.90
2022-09-18T00:13:38.163Z,0.70
2022-09-18T00:14:38.035Z,0.70
2022-09-18T00:15:38.006Z,0.70
2022-09-18T00:16:38.080Z,0.70
2022-09-18T00:17:37.973Z,0.70
2022-09-18T00:18:37.943Z,0.90
2022-09-18T00:19:38.125Z,0.70
2022-09-18T00:20:37.940Z,0.70
2022-09-18T00:21:37.907Z,0.80
2022-09-18T00:22:37.897Z,0.70
2022-09-18T00:23:37.887Z,0.70
2022-09-18T00:24:37.861Z,0.80
2022-09-18T00:25:38.073Z,0.50
2022-09-18T00:26:37.899Z,0.70
2022-09-18T00:27:37.834Z,0.90
2022-09-18T00:28:37.806Z,0.60
2022-09-18T00:29:37.816Z,0.90
2022-09-18T00:30:37.808Z,0.80
2022-09-18T00:31:37.925Z,0.80
2022-09-18T00:32:37.823Z,0.80
2022-09-18T00:33:37.753Z,0.90
2022-09-18T00:34:37.724Z,0.70
2022-09-18T00:35:37.722Z,0.80
2022-09-18T00:36:37.711Z,0.70
2022-09-18T00:37:38.083Z,0.60
2022-09-18T00:38:37.715Z,0.70
2022-09-18T00:39:37.655Z,0.70
2022-09-18T00:40:37.726Z,0.60
2022-09-18T00:41:37.638Z,0.90
2022-09-18T00:42:37.781Z,0.70
2022-09-18T00:43:37.720Z,0.90
2022-09-18T00:44:37.640Z,0.70
2022-09-18T00:45:37.602Z,0.70
2022-09-18T00:46:37.657Z,0.50
2022-09-18T00:47:37.546Z,0.70
2022-09-18T00:48:37.536Z,0.70
2022-09-18T00:49:37.636Z,0.50
2022-09-18T00:50:37.563Z,0.60
2022-09-18T00:51:37.526Z,0.70
2022-09-18T00:52:37.485Z,0.70
2022-09-18T00:53:37.481Z,0.80
2022-09-18T00:54:37.455Z,0.70
2022-09-18T00:55:37.583Z,0.80
2022-09-18T00:56:37.465Z,0.90
2022-09-18T00:57:37.400Z,0.70
2022-09-18T00:58:37.393Z,0.50
2022-09-18T00:59:37.379Z,0.60
2022-09-18T01:00:37.459Z,1.30
2022-09-18T01:01:37.613Z,0.80
2022-09-18T01:02:37.383Z,0.80
2022-09-18T01:03:37.331Z,0.70
2022-09-18T01:04:37.313Z,0.70
2022-09-18T01:05:37.982Z,1.20
2022-09-18T01:06:37.276Z,0.70
2022-09-18T01:07:37.422Z,0.90
2022-09-18T01:08:40.618Z,0.60
2022-09-18T01:09:38.252Z,0.90
2022-09-18T01:10:37.244Z,0.60
2022-09-18T01:11:37.206Z,0.60
2022-09-18T01:12:37.200Z,0.60
2022-09-18T01:13:37.355Z,0.70
2022-09-18T01:14:37.225Z,0.80
2022-09-18T01:15:37.156Z,0.70
2022-09-18T01:16:37.264Z,0.80
2022-09-18T01:17:37.140Z,0.60
2022-09-18T01:18:37.121Z,0.60
2022-09-18T01:19:37.383Z,0.70
2022-09-18T01:20:37.941Z,0.60
2022-09-18T01:21:37.073Z,0.70
2022-09-18T01:22:37.051Z,0.70
2022-09-18T01:23:37.028Z,0.80
2022-09-18T01:24:37.033Z,0.80
2022-09-18T01:25:37.171Z,0.60
2022-09-18T01:26:37.041Z,0.60
2022-09-18T01:27:36.985Z,0.50
2022-09-18T01:28:36.968Z,0.70
2022-09-18T01:29:36.964Z,0.70
2022-09-18T01:30:36.947Z,0.60
2022-09-18T01:31:37.066Z,0.50
2022-09-18T01:32:36.946Z,0.70
2022-09-18T01:33:36.911Z,0.70
2022-09-18T01:34:36.898Z,0.70
2022-09-18T01:35:41.648Z,0.70
2022-09-18T01:36:37.966Z,0.60
2022-09-18T01:37:36.856Z,0.60
2022-09-18T01:38:37.085Z,0.60
2022-09-18T01:39:36.826Z,0.50
2022-09-18T01:40:36.883Z,0.50
2022-09-18T01:41:36.798Z,0.50
2022-09-18T01:42:36.864Z,0.50
2022-09-18T01:43:36.765Z,0.60
2022-09-18T01:44:36.772Z,0.70
2022-09-18T01:45:36.761Z,0.70
2022-09-18T01:46:36.846Z,0.50
2022-09-18T01:47:36.713Z,0.80
2022-09-18T01:48:36.894Z,0.60
2022-09-18T01:49:36.693Z,0.60
2022-09-18T01:50:36.702Z,0.60
2022-09-18T01:51:36.660Z,0.70
2022-09-18T01:52:36.641Z,0.60
2022-09-18T01:53:36.635Z,0.50
2022-09-18T01:54:36.754Z,0.50
2022-09-18T01:55:36.614Z,1.10
2022-09-18T01:56:36.608Z,0.80
2022-09-18T01:57:36.574Z,0.60
2022-09-18T01:58:36.548Z,0.60
2022-09-18T01:59:36.548Z,0.50
2022-09-18T02:00:36.663Z,0.60
2022-09-18T02:01:36.618Z,0.60
2022-09-18T02:02:36.702Z,0.60
2022-09-18T02:03:36.478Z,0.50
2022-09-18T02:04:36.472Z,0.80
2022-09-18T02:05:36.481Z,0.40
2022-09-18T02:06:36.603Z,0.50
2022-09-18T02:07:36.440Z,1.10
2022-09-18T02:08:36.678Z,0.60
2022-09-18T02:09:36.396Z,0.60
2022-09-18T02:10:36.396Z,0.50
2022-09-18T02:11:36.368Z,0.60
2022-09-18T02:12:36.494Z,0.50
2022-09-18T02:13:36.341Z,0.60
2022-09-18T02:14:36.348Z,0.50
2022-09-18T02:15:36.318Z,0.50
2022-09-18T02:16:36.412Z,0.70
2022-09-18T02:17:36.281Z,0.50
2022-09-18T02:18:36.493Z,0.60
2022-09-18T02:19:36.258Z,0.50
2022-09-18T02:20:36.290Z,0.50
2022-09-18T02:21:36.234Z,0.60
2022-09-18T02:22:36.219Z,0.40
2022-09-18T02:23:36.219Z,0.60
2022-09-18T02:24:36.563Z,0.60
2022-09-18T02:25:36.178Z,0.50
2022-09-18T02:26:36.219Z,0.80
2022-09-18T02:27:36.146Z,0.50
2022-09-18T02:28:36.139Z,0.70
2022-09-18T02:29:36.113Z,0.50
2022-09-18T02:30:36.253Z,0.50
2022-09-18T02:31:36.235Z,0.50
2022-09-18T02:32:36.118Z,0.50
2022-09-18T02:33:36.067Z,0.50
2022-09-18T02:34:36.056Z,0.50
2022-09-18T02:35:36.027Z,0.60
2022-09-18T02:36:36.181Z,0.50
2022-09-18T02:37:36.007Z,0.50
2022-09-18T02:38:36.027Z,0.70
2022-09-18T02:39:35.977Z,0.50
2022-09-18T02:40:36.059Z,0.50
2022-09-18T02:41:35.955Z,0.60
2022-09-18T02:42:36.066Z,0.60
2022-09-18T02:43:35.923Z,0.50
2022-09-18T02:44:36.096Z,0.50
2022-09-18T02:45:35.951Z,0.50
2022-09-18T02:46:35.931Z,0.60
2022-09-18T02:47:35.864Z,0.50
2022-09-18T02:48:36.012Z,0.80
2022-09-18T02:49:35.847Z,0.50
2022-09-18T02:50:35.876Z,0.50
2022-09-18T02:51:35.802Z,0.60
2022-09-18T02:52:35.800Z,0.50
2022-09-18T02:53:35.787Z,0.60
2022-09-18T02:54:35.948Z,0.60
2022-09-18T02:55:35.748Z,0.50
2022-09-18T02:56:35.792Z,0.70
2022-09-18T02:57:35.727Z,0.60
2022-09-18T02:58:35.719Z,0.50
2022-09-18T02:59:35.698Z,0.50
2022-09-18T03:00:35.839Z,0.50
2022-09-18T03:01:35.717Z,0.50
2022-09-18T03:02:35.730Z,0.50
2022-09-18T03:03:35.642Z,0.60
2022-09-18T03:04:35.646Z,0.50
2022-09-18T03:05:35.795Z,0.70
2022-09-18T03:06:35.602Z,0.50
2022-09-18T03:07:35.597Z,0.60
2022-09-18T03:08:35.605Z,0.50
2022-09-18T03:09:35.559Z,0.70
2022-09-18T03:10:35.548Z,0.40
2022-09-18T03:11:35.761Z,0.50
2022-09-18T03:12:35.520Z,0.70
2022-09-18T03:13:35.515Z,0.60
2022-09-18T03:14:35.536Z,0.60
2022-09-18T03:15:35.481Z,0.70
2022-09-18T03:16:35.508Z,0.40
2022-09-18T03:17:35.600Z,0.40
2022-09-18T03:18:35.431Z,0.50
2022-09-18T03:19:35.424Z,0.60
2022-09-18T03:20:35.441Z,0.50
2022-09-18T03:21:35.396Z,0.40
2022-09-18T03:22:35.375Z,0.60
2022-09-18T03:23:35.471Z,0.50
2022-09-18T03:24:35.352Z,0.50
2022-09-18T03:25:35.331Z,0.40
2022-09-18T03:26:35.374Z,0.50
2022-09-18T03:27:35.303Z,0.50
2022-09-18T03:28:35.291Z,0.40
2022-09-18T03:29:35.427Z,0.50
2022-09-18T03:30:35.263Z,0.50
2022-09-18T03:31:35.360Z,0.50
2022-09-18T03:32:35.268Z,0.40
2022-09-18T03:33:35.238Z,0.60
2022-09-18T03:34:35.210Z,0.40
2022-09-18T03:35:35.336Z,0.40
2022-09-18T03:36:35.218Z,0.40
2022-09-18T03:37:35.187Z,0.60
2022-09-18T03:38:35.237Z,0.50
2022-09-18T03:39:35.928Z,0.40
2022-09-18T03:40:35.216Z,0.40
2022-09-18T03:41:35.395Z,0.40
2022-09-18T03:42:35.182Z,0.40
2022-09-18T03:43:35.885Z,0.70
2022-09-18T03:44:35.162Z,0.50
2022-09-18T03:45:35.115Z,0.40
2022-09-18T03:46:35.162Z,0.40
2022-09-18T03:47:36.626Z,0.40
2022-09-18T03:48:35.146Z,0.60
2022-09-18T03:49:35.046Z,0.50
2022-09-18T03:50:35.075Z,0.30
2022-09-18T03:51:35.022Z,0.50
2022-09-18T03:52:35.055Z,0.60
2022-09-18T03:53:36.248Z,0.60
2022-09-18T03:54:35.021Z,0.40
2022-09-18T03:55:34.961Z,0.50
2022-09-18T03:56:34.986Z,0.40
2022-09-18T03:57:34.929Z,0.50
2022-09-18T03:58:34.920Z,0.50
2022-09-18T03:59:35.109Z,0.50
2022-09-18T04:00:34.852Z,0.60
2022-09-18T04:01:35.543Z,0.40
2022-09-18T04:02:34.939Z,0.50
2022-09-18T04:03:34.835Z,0.50
2022-09-18T04:04:34.865Z,0.30
2022-09-18T04:05:34.926Z,0.60
2022-09-18T04:06:34.861Z,0.50
2022-09-18T04:07:34.825Z,0.40
2022-09-18T04:08:35.109Z,0.60
2022-09-18T04:09:34.784Z,0.30
2022-09-18T04:10:34.775Z,0.40
2022-09-18T04:11:35.588Z,0.60
2022-09-18T04:12:34.798Z,0.40
2022-09-18T04:13:34.757Z,0.30
2022-09-18T04:14:34.881Z,0.50
2022-09-18T04:15:34.673Z,0.40
2022-09-18T04:16:34.758Z,0.30
2022-09-18T04:17:34.883Z,0.40
2022-09-18T04:18:34.720Z,0.50
2022-09-18T04:19:34.709Z,0.50
2022-09-18T04:20:34.709Z,0.30
2022-09-18T04:21:34.613Z,0.50
2022-09-18T04:22:34.567Z,0.70
2022-09-18T04:23:34.709Z,0.40
2022-09-18T04:24:34.570Z,0.40
2022-09-18T04:25:34.613Z,0.40
2022-09-18T04:26:34.912Z,0.40
2022-09-18T04:27:34.533Z,0.40
2022-09-18T04:28:34.508Z,0.50
2022-09-18T04:29:34.695Z,0.60
2022-09-18T04:30:34.476Z,0.40
2022-09-18T04:31:34.473Z,0.40
2022-09-18T04:32:34.528Z,0.60
2022-09-18T04:33:34.378Z,0.50
2022-09-18T04:34:34.371Z,0.40
2022-09-18T04:35:34.444Z,0.50
2022-09-18T04:36:34.340Z,0.30
2022-09-18T04:37:34.332Z,0.50
2022-09-18T04:38:34.338Z,0.30
2022-09-18T04:39:34.286Z,0.40
2022-09-18T04:40:34.327Z,0.40
2022-09-18T04:41:34.355Z,0.40
2022-09-18T04:42:34.256Z,0.30
2022-09-18T04:43:34.248Z,0.30
2022-09-18T04:44:34.266Z,0.80
2022-09-18T04:45:34.215Z,0.40
2022-09-18T04:46:34.286Z,0.40
2022-09-18T04:47:34.414Z,0.40
2022-09-18T04:48:34.166Z,0.50
2022-09-18T04:49:34.157Z,0.40
2022-09-18T04:50:34.314Z,0.50
2022-09-18T04:51:34.137Z,0.50
2022-09-18T04:52:34.111Z,0.40
2022-09-18T04:53:34.213Z,0.50
2022-09-18T04:54:34.080Z,0.50
2022-09-18T04:55:34.082Z,0.30
2022-09-18T04:56:34.087Z,0.30
2022-09-18T04:57:34.078Z,0.60
2022-09-18T04:58:34.028Z,0.40
2022-09-18T04:59:34.976Z,0.60
2022-09-18T05:00:34.068Z,0.40
2022-09-18T05:01:34.185Z,0.40
2022-09-18T05:02:34.083Z,0.50
2022-09-18T05:03:34.037Z,0.30
2022-09-18T05:04:33.989Z,0.50
2022-09-18T05:05:34.176Z,0.40
2022-09-18T05:06:33.958Z,0.40
2022-09-18T05:07:33.903Z,0.40
2022-09-18T05:08:34.127Z,0.30
2022-09-18T05:09:33.872Z,0.70
2022-09-18T05:10:33.875Z,0.40
2022-09-18T05:11:33.995Z,0.40
2022-09-18T05:12:33.862Z,0.50
2022-09-18T05:13:33.828Z,0.30
2022-09-18T05:14:33.848Z,0.40
2022-09-18T05:15:33.796Z,0.50
2022-09-18T05:16:33.853Z,0.60
2022-09-18T05:17:34.001Z,0.40
2022-09-18T05:18:33.752Z,0.30
2022-09-18T05:19:33.732Z,0.40
2022-09-18T05:20:33.751Z,0.40
2022-09-18T05:21:33.715Z,0.40
2022-09-18T05:22:33.693Z,0.70
2022-09-18T05:23:33.776Z,0.70
2022-09-18T05:24:33.660Z,0.60
2022-09-18T05:25:33.670Z,0.50
2022-09-18T05:26:33.653Z,0.40
2022-09-18T05:27:33.620Z,0.50
2022-09-18T05:28:33.628Z,0.70
2022-09-18T05:29:33.730Z,0.50
2022-09-18T05:30:33.583Z,0.50
2022-09-18T05:31:33.611Z,0.50
2022-09-18T05:32:33.590Z,0.60
2022-09-18T05:33:33.537Z,0.50
2022-09-18T05:34:33.526Z,0.50
2022-09-18T05:35:34.320Z,0.70
2022-09-18T05:36:33.495Z,0.40
2022-09-18T05:37:33.473Z,0.60
2022-09-18T05:38:33.507Z,0.60
2022-09-18T05:39:33.456Z,0.70
2022-09-18T05:40:33.471Z,0.70
2022-09-18T05:41:33.597Z,0.60
2022-09-18T05:42:33.415Z,0.60
2022-09-18T05:43:33.395Z,0.40
2022-09-18T05:44:33.404Z,0.60
2022-09-18T05:45:33.367Z,0.60
2022-09-18T05:46:33.559Z,0.50
2022-09-18T05:47:33.480Z,0.60
2022-09-18T05:48:33.320Z,0.40
2022-09-18T05:49:33.299Z,0.60
2022-09-18T05:50:33.338Z,0.50
2022-09-18T05:51:33.434Z,0.50
2022-09-18T05:52:33.273Z,0.50
2022-09-18T05:53:33.384Z,0.80
2022-09-18T05:54:33.229Z,0.50
2022-09-18T05:55:33.367Z,0.70
2022-09-18T05:56:33.531Z,0.50
2022-09-18T05:57:33.206Z,0.50
2022-09-18T05:58:33.200Z,0.30
2022-09-18T05:59:33.431Z,0.50
2022-09-18T06:00:33.998Z,0.50
2022-09-18T06:01:33.212Z,0.50
2022-09-18T06:02:33.216Z,0.40
2022-09-18T06:03:33.099Z,0.60
2022-09-18T06:04:33.098Z,0.50
2022-09-18T06:05:33.235Z,0.70
2022-09-18T06:06:33.068Z,0.60
2022-09-18T06:07:33.064Z,0.40
2022-09-18T06:08:33.060Z,0.40
2022-09-18T06:09:33.027Z,0.60
2022-09-18T06:10:33.009Z,0.60
2022-09-18T06:11:33.289Z,0.50
2022-09-18T06:12:32.980Z,0.70
2022-09-18T06:13:32.967Z,0.50
2022-09-18T06:14:32.990Z,0.70
2022-09-18T06:15:32.944Z,0.60
2022-09-18T06:16:32.984Z,0.40
2022-09-18T06:17:33.107Z,0.50
2022-09-18T06:18:32.898Z,0.40
2022-09-18T06:19:32.884Z,0.50
2022-09-18T06:20:32.909Z,0.50
2022-09-18T06:21:32.853Z,0.60
2022-09-18T06:22:32.851Z,0.30
2022-09-18T06:23:32.985Z,0.50
2022-09-18T06:24:32.813Z,0.40
2022-09-18T06:25:32.811Z,0.50
2022-09-18T06:26:32.819Z,0.40
2022-09-18T06:27:32.790Z,0.40
2022-09-18T06:28:32.751Z,0.40
2022-09-18T06:29:32.840Z,0.60
2022-09-18T06:30:32.731Z,0.60
2022-09-18T06:31:32.813Z,0.60
2022-09-18T06:32:32.723Z,0.60
2022-09-18T06:33:32.695Z,0.40
2022-09-18T06:34:36.658Z,0.50
2022-09-18T06:35:33.759Z,0.60
2022-09-18T06:36:32.747Z,0.40
2022-09-18T06:37:32.660Z,0.50
2022-09-18T06:38:32.649Z,0.40
2022-09-18T06:39:32.615Z,0.50
2022-09-18T06:40:32.647Z,0.70
2022-09-18T06:41:32.606Z,0.70
2022-09-18T06:42:32.796Z,0.70
2022-09-18T06:43:32.545Z,0.50
2022-09-18T06:44:32.574Z,0.40
2022-09-18T06:45:32.519Z,0.50
2022-09-18T06:46:32.546Z,0.60
2022-09-18T06:47:32.509Z,0.70
2022-09-18T06:48:32.587Z,0.50
2022-09-18T06:49:32.466Z,0.60
2022-09-18T06:50:32.462Z,0.40
2022-09-18T06:51:32.445Z,0.70
2022-09-18T06:52:32.413Z,0.60
2022-09-18T06:53:32.415Z,0.70
2022-09-18T06:54:32.631Z,0.50
2022-09-18T06:55:32.380Z,0.40
2022-09-18T06:56:32.598Z,0.50
2022-09-18T06:57:32.355Z,0.50
2022-09-18T06:58:32.331Z,0.40
2022-09-18T06:59:32.346Z,0.60
2022-09-18T07:00:32.638Z,0.80
2022-09-18T07:01:32.382Z,0.40
2022-09-18T07:02:32.330Z,0.40
2022-09-18T07:03:32.270Z,0.40
2022-09-18T07:04:32.257Z,0.50
2022-09-18T07:05:32.248Z,0.70
2022-09-18T07:06:32.359Z,0.40
2022-09-18T07:07:32.214Z,0.70
2022-09-18T07:08:32.234Z,0.60
2022-09-18T07:09:32.218Z,0.60
2022-09-18T07:10:32.172Z,0.50
2022-09-18T07:11:32.167Z,0.50
2022-09-18T07:12:32.230Z,0.40
2022-09-18T07:13:32.135Z,1.20
2022-09-18T07:14:32.136Z,0.50
2022-09-18T07:15:32.106Z,0.30
2022-09-18T07:16:32.128Z,0.50
2022-09-18T07:17:32.072Z,0.40
2022-09-18T07:18:32.139Z,0.40
2022-09-18T07:19:32.045Z,0.50
2022-09-18T07:20:32.082Z,0.70
2022-09-18T07:21:32.023Z,0.60
2022-09-18T07:22:32.004Z,0.60
2022-09-18T07:23:31.992Z,0.40
2022-09-18T07:24:32.054Z,0.50
2022-09-18T07:25:31.976Z,0.60
2022-09-18T07:26:31.963Z,0.70
2022-09-18T07:27:31.939Z,0.50
2022-09-18T07:28:31.923Z,0.40
2022-09-18T07:29:31.919Z,0.50
2022-09-18T07:30:32.032Z,0.60
2022-09-18T07:31:32.015Z,0.40
2022-09-18T07:32:31.891Z,0.50
2022-09-18T07:33:31.873Z,0.50
2022-09-18T07:34:31.830Z,0.40
2022-09-18T07:35:31.837Z,0.50
2022-09-18T07:36:31.905Z,0.60
2022-09-18T07:37:31.804Z,0.60
2022-09-18T07:38:31.809Z,0.30
2022-09-18T07:39:31.777Z,0.50
2022-09-18T07:40:31.775Z,0.70
2022-09-18T07:41:31.752Z,0.40
2022-09-18T07:42:31.886Z,0.50
2022-09-18T07:43:31.695Z,0.70
2022-09-18T07:44:31.729Z,0.70
2022-09-18T07:45:31.674Z,0.50
2022-09-18T07:46:31.751Z,0.60
2022-09-18T07:47:31.652Z,0.50
2022-09-18T07:48:31.775Z,0.50
2022-09-18T07:49:31.627Z,0.60
2022-09-18T07:50:31.674Z,0.70
2022-09-18T07:51:31.592Z,0.80
2022-09-18T07:52:31.648Z,0.60
2022-09-18T07:53:31.565Z,0.60
2022-09-18T07:54:31.646Z,0.70
2022-09-18T07:55:31.539Z,0.60
2022-09-18T07:56:31.585Z,0.80
2022-09-18T07:57:31.515Z,0.60
2022-09-18T07:58:31.551Z,0.70
2022-09-18T07:59:31.481Z,0.60
2022-09-18T08:00:31.641Z,0.70
2022-09-18T08:01:31.513Z,0.70
2022-09-18T08:02:31.658Z,0.50
2022-09-18T08:03:31.434Z,0.80
2022-09-18T08:04:31.422Z,0.40
2022-09-18T08:05:31.399Z,0.60
2022-09-18T08:06:31.474Z,0.60
2022-09-18T08:07:31.388Z,1.00
2022-09-18T08:08:31.400Z,0.60
2022-09-18T08:09:31.360Z,1.90
2022-09-18T08:10:31.338Z,0.60
2022-09-18T08:11:31.336Z,0.60
2022-09-18T08:12:31.427Z,0.50
2022-09-18T08:13:31.321Z,0.50
2022-09-18T08:14:31.327Z,0.80
2022-09-18T08:15:31.276Z,0.50
2022-09-18T08:16:31.359Z,0.60
2022-09-18T08:17:31.226Z,0.70
2022-09-18T08:18:31.390Z,0.60
2022-09-18T08:19:31.202Z,0.60
2022-09-18T08:20:31.246Z,0.90
2022-09-18T08:21:31.188Z,0.60
2022-09-18T08:22:31.168Z,0.90
2022-09-18T08:23:31.168Z,0.50
2022-09-18T08:24:31.248Z,0.50
2022-09-18T08:25:31.125Z,0.70
2022-09-18T08:26:31.138Z,0.60
2022-09-18T08:27:31.100Z,0.60
2022-09-18T08:28:31.101Z,0.80
2022-09-18T08:29:31.061Z,0.60
2022-09-18T08:30:31.432Z,0.70
2022-09-18T08:31:31.146Z,0.60
2022-09-18T08:32:31.070Z,0.80
2022-09-18T08:33:31.009Z,0.60
2022-09-18T08:34:31.003Z,0.60
2022-09-18T08:35:31.037Z,0.60
2022-09-18T08:36:31.087Z,0.70
2022-09-18T08:37:30.952Z,0.80
2022-09-18T08:38:31.003Z,0.50
2022-09-18T08:39:30.966Z,0.60
2022-09-18T08:40:30.943Z,0.50
2022-09-18T08:41:31.022Z,0.70
2022-09-18T08:42:30.972Z,0.70
2022-09-18T08:43:30.930Z,0.70
2022-09-18T08:44:30.929Z,0.70
2022-09-18T08:45:30.892Z,0.60
2022-09-18T08:46:30.976Z,0.60
2022-09-18T08:47:30.803Z,0.50
2022-09-18T08:48:30.890Z,1.20
2022-09-18T08:49:30.832Z,1.20
2022-09-18T08:50:33.854Z,1.80
2022-09-18T08:51:31.755Z,2.70
2022-09-18T08:52:30.736Z,1.70
2022-09-18T08:53:30.733Z,1.20
2022-09-18T08:54:30.941Z,1.70
2022-09-18T08:55:30.697Z,1.50
2022-09-18T08:56:30.756Z,2.60
2022-09-18T08:57:30.701Z,1.50
2022-09-18T08:58:30.714Z,1.60
2022-09-18T08:59:30.644Z,1.30
2022-09-18T09:00:30.880Z,1.30
2022-09-18T09:01:30.675Z,1.50
2022-09-18T09:02:30.770Z,1.20
2022-09-18T09:03:30.603Z,0.70
2022-09-18T09:04:30.572Z,0.80
2022-09-18T09:05:30.563Z,1.10
2022-09-18T09:06:30.631Z,1.50
2022-09-18T09:07:30.537Z,1.40
2022-09-18T09:08:30.635Z,1.30
2022-09-18T09:09:30.512Z,1.70
2022-09-18T09:10:30.512Z,1.60
2022-09-18T09:11:30.515Z,1.00
2022-09-18T09:12:30.579Z,1.70
2022-09-18T09:13:30.449Z,1.20
2022-09-18T09:14:55.410Z,1.60
2022-09-18T09:15:31.423Z,1.30
2022-09-18T09:16:30.460Z,1.30
2022-09-18T09:17:30.498Z,1.00
2022-09-18T09:18:30.642Z,1.40
2022-09-18T09:19:30.563Z,1.30
2022-09-18T09:20:30.399Z,1.70
2022-09-18T09:21:30.338Z,1.10
2022-09-18T09:22:30.341Z,1.30
2022-09-18T09:23:30.305Z,1.30
2022-09-18T09:24:30.464Z,1.30
2022-09-18T09:25:30.284Z,1.30
2022-09-18T09:26:30.286Z,1.00
2022-09-18T09:27:30.257Z,1.10
2022-09-18T09:28:30.243Z,0.60
2022-09-18T09:29:30.246Z,1.20
2022-09-18T09:30:31.012Z,1.50
2022-09-18T09:31:30.286Z,1.20
2022-09-18T09:32:30.213Z,0.80
2022-09-18T09:33:30.251Z,1.00
2022-09-18T09:34:30.274Z,0.80
2022-09-18T09:35:30.178Z,1.30
2022-09-18T09:36:30.219Z,0.60
2022-09-18T09:37:33.673Z,1.00
2022-09-18T09:38:30.161Z,1.00
2022-09-18T09:39:30.110Z,1.00
2022-09-18T09:40:30.228Z,1.20
2022-09-18T09:41:30.125Z,1.00
2022-09-18T09:42:30.226Z,1.00
2022-09-18T09:43:30.109Z,0.90
2022-09-18T09:44:30.075Z,1.00
2022-09-18T09:45:30.033Z,1.00
2022-09-18T09:46:30.083Z,1.00
2022-09-18T09:47:29.979Z,0.90
2022-09-18T09:48:30.100Z,1.30
2022-09-18T09:49:30.035Z,1.10
2022-09-18T09:50:29.970Z,1.00
2022-09-18T09:51:30.003Z,1.40
2022-09-18T09:52:29.939Z,1.30
2022-09-18T09:53:29.981Z,1.70
2022-09-18T09:54:30.095Z,0.90
2022-09-18T09:55:29.997Z,0.70
2022-09-18T09:56:30.023Z,1.10
2022-09-18T09:57:29.841Z,0.70
2022-09-18T09:58:30.018Z,0.80
2022-09-18T09:59:29.999Z,0.90
2022-09-18T10:00:30.008Z,1.10
2022-09-18T10:01:29.823Z,1.00
2022-09-18T10:02:30.052Z,1.10
2022-09-18T10:03:30.700Z,0.90
2022-09-18T10:04:30.132Z,0.90
2022-09-18T10:05:29.844Z,1.10
2022-09-18T10:06:29.965Z,1.10
2022-09-18T10:07:29.726Z,1.20
2022-09-18T10:08:29.952Z,1.30
2022-09-18T10:09:29.829Z,1.30
2022-09-18T10:10:29.704Z,1.70
2022-09-18T10:11:29.918Z,1.40
2022-09-18T10:12:29.800Z,1.40
2022-09-18T10:13:29.673Z,1.30
2022-09-18T10:14:30.604Z,1.20
2022-09-18T10:15:29.711Z,0.90
2022-09-18T10:16:30.604Z,1.30
2022-09-18T10:17:29.680Z,0.90
2022-09-18T10:18:29.797Z,1.20
2022-09-18T10:19:29.601Z,1.20
2022-09-18T10:20:29.638Z,1.40
2022-09-18T10:21:29.536Z,1.00
2022-09-18T10:22:30.094Z,1.20
2022-09-18T10:23:33.569Z,1.10
2022-09-18T10:24:29.739Z,1.10
2022-09-18T10:25:29.439Z,1.40
2022-09-18T10:26:30.117Z,1.20
2022-09-18T10:27:29.672Z,1.20
2022-09-18T10:28:29.708Z,1.30
2022-09-18T10:29:33.797Z,1.10
2022-09-18T10:30:30.527Z,0.90
2022-09-18T10:31:29.941Z,1.30
2022-09-18T10:32:29.750Z,0.70
2022-09-18T10:33:29.415Z,0.90
2022-09-18T10:34:29.433Z,0.90
2022-09-18T10:35:29.542Z,1.10
2022-09-18T10:36:29.563Z,1.10
2022-09-18T10:37:29.617Z,1.20
2022-09-18T10:38:29.383Z,1.00
2022-09-18T10:39:31.432Z,0.90
2022-09-18T10:40:29.368Z,1.10
2022-09-18T10:41:29.929Z,1.20
2022-09-18T10:42:29.322Z,1.10
2022-09-18T10:43:29.516Z,1.20
2022-09-18T10:44:29.270Z,1.10
2022-09-18T10:45:29.348Z,0.90
2022-09-18T10:46:29.223Z,1.10
2022-09-18T10:47:29.137Z,0.80
2022-09-18T10:48:29.132Z,1.10
2022-09-18T10:49:29.265Z,0.70
2022-09-18T10:50:33.660Z,0.70
2022-09-18T10:51:30.076Z,1.00
2022-09-18T10:52:29.305Z,0.90
2022-09-18T10:53:29.076Z,0.60
2022-09-18T10:54:29.045Z,0.90
2022-09-18T10:55:29.165Z,1.00
2022-09-18T10:56:29.056Z,1.20
2022-09-18T10:57:29.045Z,0.80
2022-09-18T10:58:28.991Z,0.50
2022-09-18T10:59:29.048Z,0.90
2022-09-18T11:00:28.986Z,0.80
2022-09-18T11:01:29.321Z,0.80
2022-09-18T11:02:29.049Z,1.30
2022-09-18T11:03:29.057Z,1.00
2022-09-18T11:04:29.877Z,0.50
2022-09-18T11:05:28.912Z,1.00
2022-09-18T11:06:28.899Z,0.80
2022-09-18T11:07:29.012Z,0.90
2022-09-18T11:08:28.961Z,0.70
2022-09-18T11:09:28.979Z,1.00
2022-09-18T11:10:28.879Z,0.60
2022-09-18T11:11:28.892Z,0.90
2022-09-18T11:12:28.843Z,0.70
2022-09-18T11:13:28.899Z,0.70
2022-09-18T11:14:28.905Z,0.70
2022-09-18T11:15:28.862Z,0.80
2022-09-18T11:16:28.832Z,1.30
2022-09-18T11:17:28.793Z,0.70
2022-09-18T11:18:28.866Z,0.80
2022-09-18T11:19:28.935Z,0.90
2022-09-18T11:20:28.780Z,0.60
2022-09-18T11:21:28.668Z,0.70
2022-09-18T11:22:28.695Z,0.70
2022-09-18T11:23:28.648Z,0.60
2022-09-18T11:24:28.643Z,0.60
2022-09-18T11:25:28.876Z,0.50
2022-09-18T11:26:28.624Z,1.10
2022-09-18T11:27:28.586Z,0.80
2022-09-18T11:28:28.571Z,0.70
2022-09-18T11:29:28.564Z,0.80
2022-09-18T11:30:28.534Z,0.60
2022-09-18T11:31:28.735Z,0.70
2022-09-18T11:32:28.573Z,0.50
2022-09-18T11:33:28.508Z,0.90
2022-09-18T11:34:28.491Z,0.70
2022-09-18T11:35:28.486Z,0.60
2022-09-18T11:36:28.470Z,0.90
2022-09-18T11:37:28.591Z,1.00
2022-09-18T11:38:28.494Z,0.60
2022-09-18T11:39:28.419Z,0.70
2022-09-18T11:40:28.518Z,0.90
2022-09-18T11:41:28.401Z,0.80
2022-09-18T11:42:28.382Z,0.80
2022-09-18T11:43:28.600Z,0.90
2022-09-18T11:44:28.379Z,0.70
2022-09-18T11:45:28.342Z,0.70
2022-09-18T11:46:28.356Z,0.50
2022-09-18T11:47:28.309Z,0.80
2022-09-18T11:48:28.276Z,0.90
2022-09-18T11:49:28.441Z,0.60
2022-09-18T11:50:28.297Z,0.90
2022-09-18T11:51:28.280Z,0.70
2022-09-18T11:52:28.236Z,0.60
2022-09-18T11:53:28.232Z,0.80
2022-09-18T11:54:28.195Z,0.60
2022-09-18T11:55:28.328Z,0.70
2022-09-18T11:56:28.225Z,0.80
2022-09-18T11:57:28.167Z,0.70
2022-09-18T11:58:28.160Z,0.60
2022-09-18T11:59:28.146Z,0.90
2022-09-18T12:00:28.202Z,0.80
2022-09-18T12:01:28.283Z,0.70
2022-09-18T12:02:28.228Z,0.60
2022-09-18T12:03:28.191Z,0.70
2022-09-18T12:04:28.067Z,0.70
2022-09-18T12:05:28.056Z,0.70
2022-09-18T12:06:28.043Z,1.00
2022-09-18T12:07:42.446Z,0.70
2022-09-18T12:08:26.693Z,0.60
2022-09-18T12:09:26.635Z,0.80
2022-09-18T12:10:26.647Z,0.60
2022-09-18T12:11:26.601Z,0.60
2022-09-18T12:12:26.588Z,0.60
2022-09-18T12:13:26.747Z,0.50
2022-09-18T12:14:26.598Z,0.60
2022-09-18T12:15:26.547Z,0.80
2022-09-18T12:16:26.641Z,0.60
2022-09-18T12:17:26.516Z,0.70
2022-09-18T12:18:26.506Z,0.50
2022-09-18T12:19:26.592Z,0.60
2022-09-18T12:20:26.508Z,0.60
2022-09-18T12:21:26.461Z,0.60
2022-09-18T12:22:26.450Z,0.70
2022-09-18T12:23:26.455Z,0.60
2022-09-18T12:24:26.416Z,0.40
2022-09-18T12:25:26.509Z,0.60
2022-09-18T12:26:26.435Z,0.50
2022-09-18T12:27:27.879Z,0.70
2022-09-18T12:28:26.375Z,0.70
2022-09-18T12:29:26.338Z,0.60
2022-09-18T12:30:26.321Z,1.00
2022-09-18T12:31:26.451Z,0.70
2022-09-18T12:32:26.338Z,0.90
2022-09-18T12:33:26.295Z,0.70
2022-09-18T12:34:26.272Z,0.50
2022-09-18T12:35:26.246Z,0.70
2022-09-18T12:36:26.243Z,0.60
2022-09-18T12:37:26.385Z,0.60
2022-09-18T12:38:26.253Z,0.60
2022-09-18T12:39:26.881Z,0.50
2022-09-18T12:40:26.898Z,0.60
2022-09-18T12:41:26.837Z,0.60
2022-09-18T12:42:26.829Z,0.50
2022-09-18T12:43:27.056Z,0.70
2022-09-18T12:44:26.845Z,0.70
2022-09-18T12:45:26.808Z,0.80
2022-09-18T12:46:26.773Z,0.50
2022-09-18T12:47:26.759Z,0.40
2022-09-18T12:48:26.744Z,0.50
2022-09-18T12:49:27.119Z,0.40
2022-09-18T12:50:26.755Z,0.50
2022-09-18T12:51:26.692Z,0.60
2022-09-18T12:52:27.758Z,0.50
2022-09-18T12:53:26.679Z,0.70
2022-09-18T12:54:26.645Z,0.60
2022-09-18T12:55:26.878Z,0.60
2022-09-18T12:56:26.643Z,0.50
2022-09-18T12:57:26.601Z,0.40
2022-09-18T12:58:26.581Z,0.30
2022-09-18T12:59:26.582Z,0.60
2022-09-18T13:00:26.641Z,0.50
2022-09-18T13:01:26.713Z,0.40
2022-09-18T13:02:26.595Z,0.70
2022-09-18T13:03:26.557Z,0.60
2022-09-18T13:04:26.557Z,0.50
2022-09-18T13:05:26.486Z,0.80
2022-09-18T13:06:26.477Z,0.50
2022-09-18T13:07:26.630Z,0.60
2022-09-18T13:08:26.498Z,0.60
2022-09-18T13:09:26.422Z,0.60
2022-09-18T13:10:26.418Z,0.40
2022-09-18T13:11:26.411Z,0.40
2022-09-18T13:12:26.510Z,0.70
2022-09-18T13:13:26.524Z,0.50
2022-09-18T13:14:26.383Z,0.60
2022-09-18T13:15:26.321Z,0.60
2022-09-18T13:16:27.093Z,0.50
2022-09-18T13:17:27.021Z,0.60
2022-09-18T13:18:27.008Z,0.50